Time;durP1;ratioP1;P1;durP2;ratioP2;P2;SDS_P1;SDS_P2;PMS_P1;PMS_P2;Temp;Humidity;BMP_temperature;BMP_pressure;BME280_temperature;BME280_humidity;BME280_pressure;Samples;Min_cycle;Max_cycle;Signal;HPM_P1;HPM_P2
2022/10/06 00:01:45;;;;;;;29.05;23.30;;;;;;;;;;5082028;28;20467;-75
2022/10/06 00:04:10;;;;;;;32.78;24.45;;;;;;;;;;5081385;28;20059;-78
2022/10/06 00:06:35;;;;;;;34.00;24.50;;;;;;;;;;5081588;28;20039;-75
2022/10/06 00:09:01;;;;;;;32.30;22.88;;;;;;;;;;5073218;28;20016;-76
2022/10/06 00:11:26;;;;;;;27.73;19.85;;;;;;;;;;5077446;28;20085;-75
2022/10/06 00:13:51;;;;;;;23.48;18.10;;;;;;;;;;5079014;28;20784;-81
2022/10/06 00:16:21;;;;;;;24.58;15.90;;;;;;;;;;5080665;28;20031;-79
2022/10/06 00:18:46;;;;;;;21.13;15.93;;;;;;;;;;5081908;28;20031;-75
2022/10/06 00:21:12;;;;;;;24.83;16.42;;;;;;;;;;5084458;28;20036;-78
2022/10/06 00:23:37;;;;;;;34.22;20.92;;;;;;;;;;5082114;28;20028;-80
2022/10/06 00:26:03;;;;;;;20.50;13.07;;;;;;;;;;5083892;28;20031;-76
2022/10/06 00:28:28;;;;;;;19.17;11.55;;;;;;;;;;5085109;28;20439;-75
2022/10/06 00:30:55;;;;;;;17.95;11.35;;;;;;;;;;5084236;28;20044;-75
2022/10/06 00:33:21;;;;;;;18.83;12.50;;;;;;;;;;5083357;28;20032;-76
2022/10/06 00:35:46;;;;;;;16.88;11.60;;;;;;;;;;5084352;28;20016;-76
2022/10/06 00:38:13;;;;;;;16.15;11.10;;;;;;;;;;5084872;28;20122;-80
2022/10/06 00:40:45;;;;;;;20.80;13.63;;;;;;;;;;5076463;28;20024;-76
2022/10/06 00:43:49;;;;;;;20.30;14.50;;;;;;;;;;5080759;28;20024;-77
2022/10/06 00:46:15;;;;;;;23.10;15.80;;;;;;;;;;4996924;28;20058;-77
2022/10/06 00:48:41;;;;;;;47.42;33.20;;;;;;;;;;5000237;28;20041;-77
2022/10/06 00:51:06;;;;;;;134.45;93.03;;;;;;;;;;4997485;28;20080;-76
2022/10/06 00:53:32;;;;;;;114.28;82.50;;;;;;;;;;5000952;28;20033;-76
2022/10/06 00:55:57;;;;;;;85.65;70.03;;;;;;;;;;4982670;28;20064;-79
2022/10/06 00:58:23;;;;;;;38.47;31.50;;;;;;;;;;4996027;28;20480;-79
2022/10/06 01:00:53;;;;;;;29.83;22.63;;;;;;;;;;4984959;28;20074;-79
2022/10/06 01:03:22;;;;;;;17.88;13.85;;;;;;;;;;4996434;28;20048;-78
2022/10/06 01:05:48;;;;;;;;;;;;;;;;;;4980421;28;20389;-77
2022/10/06 01:08:14;;;;;;;17.98;12.65;;;;;;;;;;4998112;28;19917;-78
2022/10/06 01:10:39;;;;;;;28.17;22.85;;;;;;;;;;4993514;28;20046;-78
2022/10/06 01:13:05;;;;;;;28.75;22.27;;;;;;;;;;4989131;28;20429;-80
2022/10/06 01:15:32;;;;;;;20.83;15.15;;;;;;;;;;4996402;28;20030;-78
2022/10/06 01:18:01;;;;;;;12.10;8.93;;;;;;;;;;5074893;28;20040;-79
2022/10/06 01:20:28;;;;;;;12.98;8.55;;;;;;;;;;5081267;28;20093;-79
2022/10/06 01:22:56;;;;;;;13.77;9.65;;;;;;;;;;5082240;28;20119;-77
2022/10/06 01:25:22;;;;;;;9.07;6.90;;;;;;;;;;5083071;28;20386;-78
2022/10/06 01:27:52;;;;;;;10.63;8.00;;;;;;;;;;5083442;28;20059;-81
2022/10/06 01:30:20;;;;;;;11.98;8.65;;;;;;;;;;5082621;28;20020;-80
2022/10/06 01:32:45;;;;;;;9.05;7.25;;;;;;;;;;5083170;28;20032;-78
2022/10/06 01:35:10;;;;;;;10.38;6.50;;;;;;;;;;5081158;28;20042;-80
2022/10/06 01:37:36;;;;;;;5.07;4.57;;;;;;;;;;5083412;28;20027;-76
2022/10/06 01:40:01;;;;;;;4.78;4.10;;;;;;;;;;5082570;28;20028;-79
2022/10/06 01:42:30;;;;;;;6.65;4.53;;;;;;;;;;5083127;28;20090;-79
2022/10/06 01:44:56;;;;;;;5.70;5.10;;;;;;;;;;5080290;28;20887;-78
2022/10/06 01:47:21;;;;;;;6.78;5.22;;;;;;;;;;5083568;28;20047;-78
2022/10/06 01:49:46;;;;;;;6.57;5.57;;;;;;;;;;5081151;28;20580;-78
2022/10/06 01:52:12;;;;;;;8.10;6.65;;;;;;;;;;5081660;28;20075;-78
2022/10/06 01:54:37;;;;;;;13.35;10.63;;;;;;;;;;5083182;28;20036;-79
2022/10/06 01:57:04;;;;;;;14.30;10.40;;;;;;;;;;5082671;28;20028;-78
2022/10/06 01:59:29;;;;;;;9.10;7.47;;;;;;;;;;5082710;28;20024;-78
2022/10/06 02:01:54;;;;;;;8.15;7.30;;;;;;;;;;5081612;28;20035;-77
2022/10/06 02:04:20;;;;;;;7.97;7.18;;;;;;;;;;5082463;28;22399;-77
2022/10/06 02:06:46;;;;;;;8.63;6.63;;;;;;;;;;5082521;28;20019;-77
2022/10/06 02:09:11;;;;;;;15.80;7.50;;;;;;;;;;5082186;28;20027;-78
2022/10/06 02:11:37;;;;;;;13.65;10.32;;;;;;;;;;5079545;28;20042;-78
2022/10/06 02:14:02;;;;;;;18.92;13.50;;;;;;;;;;5080007;28;20032;-78
2022/10/06 02:16:28;;;;;;;19.52;15.25;;;;;;;;;;5080873;28;20028;-78
2022/10/06 02:18:54;;;;;;;23.40;16.70;;;;;;;;;;5081428;28;20035;-79
2022/10/06 02:21:20;;;;;;;19.60;13.60;;;;;;;;;;5071016;28;20032;-77
2022/10/06 02:23:46;;;;;;;25.88;16.98;;;;;;;;;;5081966;28;20020;-78
2022/10/06 02:26:12;;;;;;;18.67;13.85;;;;;;;;;;5081667;28;20123;-79
2022/10/06 02:28:37;;;;;;;19.65;13.57;;;;;;;;;;5082824;28;20027;-79
2022/10/06 02:31:05;;;;;;;16.98;12.55;;;;;;;;;;5080726;28;20059;-78
2022/10/06 02:33:30;;;;;;;17.58;12.10;;;;;;;;;;5081337;28;20024;-78
2022/10/06 02:35:55;;;;;;;18.60;13.15;;;;;;;;;;5083727;28;20030;-78
2022/10/06 02:38:22;;;;;;;20.55;14.32;;;;;;;;;;5079717;28;20051;-77
2022/10/06 02:40:48;;;;;;;20.30;12.88;;;;;;;;;;5078542;28;20036;-80
2022/10/06 02:43:13;;;;;;;16.80;11.90;;;;;;;;;;5073160;28;20116;-76
2022/10/06 02:45:38;;;;;;;17.25;10.13;;;;;;;;;;5080843;28;20052;-77
2022/10/06 02:48:04;;;;;;;12.02;8.20;;;;;;;;;;5081396;28;20028;-76
2022/10/06 02:50:29;;;;;;;13.40;8.07;;;;;;;;;;5071497;28;20052;-77
2022/10/06 02:52:55;;;;;;;18.10;10.95;;;;;;;;;;5078124;28;20038;-77
2022/10/06 02:55:21;;;;;;;9.57;7.05;;;;;;;;;;5081739;28;20059;-77
2022/10/06 02:57:46;;;;;;;13.98;8.88;;;;;;;;;;5076332;28;20052;-81
2022/10/06 03:00:13;;;;;;;7.03;6.22;;;;;;;;;;5075723;28;20108;-77
2022/10/06 03:02:39;;;;;;;9.32;6.97;;;;;;;;;;5082035;28;20462;-75
2022/10/06 03:05:04;;;;;;;9.43;6.50;;;;;;;;;;5080606;28;20056;-80
2022/10/06 03:07:30;;;;;;;8.00;6.15;;;;;;;;;;5080408;28;20028;-75
2022/10/06 03:09:55;;;;;;;8.93;6.60;;;;;;;;;;5081020;28;20027;-78
2022/10/06 03:12:21;;;;;;;9.75;7.50;;;;;;;;;;5081586;28;20036;-78
2022/10/06 03:14:46;;;;;;;10.63;7.53;;;;;;;;;;5080919;28;20028;-78
2022/10/06 03:17:11;;;;;;;10.60;7.53;;;;;;;;;;5076164;28;20031;-75
2022/10/06 03:19:37;;;;;;;10.93;6.78;;;;;;;;;;5073018;28;20035;-76
2022/10/06 03:22:03;;;;;;;6.80;5.32;;;;;;;;;;5080463;28;20074;-78
2022/10/06 03:24:29;;;;;;;5.93;5.05;;;;;;;;;;5080078;28;20116;-78
2022/10/06 03:26:54;;;;;;;11.82;5.47;;;;;;;;;;5079389;28;20107;-79
2022/10/06 03:29:19;;;;;;;7.90;4.97;;;;;;;;;;5080983;28;20024;-78
2022/10/06 03:31:45;;;;;;;5.28;4.78;;;;;;;;;;5079363;28;20035;-77
2022/10/06 03:34:12;;;;;;;4.55;4.15;;;;;;;;;;5079491;28;20056;-79
2022/10/06 03:36:37;;;;;;;4.60;4.15;;;;;;;;;;5073269;28;20132;-77
2022/10/06 03:39:04;;;;;;;25.92;21.80;;;;;;;;;;5079169;28;20495;-80
2022/10/06 03:41:30;;;;;;;21.30;18.85;;;;;;;;;;5071936;28;20031;-78
2022/10/06 03:43:57;;;;;;;11.10;9.60;;;;;;;;;;5078819;28;20028;-77
2022/10/06 03:46:23;;;;;;;8.90;6.70;;;;;;;;;;5081559;28;20466;-78
2022/10/06 03:48:49;;;;;;;7.55;5.90;;;;;;;;;;5078680;28;20074;-77
2022/10/06 03:51:17;;;;;;;7.47;6.38;;;;;;;;;;5079524;28;20363;-76
2022/10/06 03:53:43;;;;;;;9.10;6.32;;;;;;;;;;5084974;28;20548;-76
2022/10/06 03:56:13;;;;;;;9.57;6.90;;;;;;;;;;5080898;28;20399;-78
2022/10/06 03:58:38;;;;;;;;;;;;;;;;;;5084549;28;20027;-76
2022/10/06 04:01:04;;;;;;;16.53;13.50;;;;;;;;;;5085723;28;19942;-77
2022/10/06 04:03:29;;;;;;;51.17;36.17;;;;;;;;;;5084631;28;20272;-76
2022/10/06 04:05:56;;;;;;;132.10;93.00;;;;;;;;;;5073323;28;21189;-77
2022/10/06 04:08:22;;;;;;;273.52;194.38;;;;;;;;;;5068290;28;20070;-79
2022/10/06 04:10:48;;;;;;;367.73;260.42;;;;;;;;;;5069723;28;20439;-77
2022/10/06 04:13:20;;;;;;;224.75;157.52;;;;;;;;;;5074478;28;20081;-77
2022/10/06 04:15:46;;;;;;;179.70;125.00;;;;;;;;;;5073034;28;20044;-77
2022/10/06 04:18:11;;;;;;;80.72;54.22;;;;;;;;;;5082477;28;20439;-77
2022/10/06 04:20:37;;;;;;;56.65;39.88;;;;;;;;;;5084905;28;20024;-77
2022/10/06 04:23:02;;;;;;;56.38;40.50;;;;;;;;;;5087606;28;20028;-77
2022/10/06 04:25:28;;;;;;;39.13;27.02;;;;;;;;;;5085161;28;20023;-76
2022/10/06 04:27:53;;;;;;;22.27;15.70;;;;;;;;;;5087777;28;20116;-77
2022/10/06 04:30:18;;;;;;;12.52;10.05;;;;;;;;;;5087504;27;20024;-76
2022/10/06 04:32:44;;;;;;;12.48;9.25;;;;;;;;;;5074869;28;20108;-76
2022/10/06 04:35:10;;;;;;;18.90;16.27;;;;;;;;;;5078817;28;20038;-76
2022/10/06 04:37:35;;;;;;;19.88;17.35;;;;;;;;;;5074521;28;21386;-76
2022/10/06 04:40:01;;;;;;;144.77;94.85;;;;;;;;;;5087887;28;20046;-77
2022/10/06 04:42:28;;;;;;;70.45;58.50;;;;;;;;;;5085733;28;21103;-77
2022/10/06 04:44:54;;;;;;;28.70;23.00;;;;;;;;;;5084837;28;20379;-76
2022/10/06 04:47:19;;;;;;;19.52;15.95;;;;;;;;;;5087536;28;20052;-75
2022/10/06 04:49:44;;;;;;;31.35;24.70;;;;;;;;;;5086146;28;20074;-74
2022/10/06 04:52:10;;;;;;;20.52;18.05;;;;;;;;;;5075149;28;20019;-77
2022/10/06 04:54:35;;;;;;;57.38;44.97;;;;;;;;;;5082995;28;20034;-83
2022/10/06 04:57:00;;;;;;;36.70;25.77;;;;;;;;;;5077965;28;20047;-82
2022/10/06 05:00:21;;;;;;;72.13;49.35;;;;;;;;;;5077034;28;20036;-77
2022/10/06 05:02:11;;;;;;;90.07;59.47;;;;;;;;;;5086259;28;20483;-75
2022/10/06 05:04:36;;;;;;;82.43;62.70;;;;;;;;;;5084382;28;20023;-73
2022/10/06 05:07:02;;;;;;;134.68;104.68;;;;;;;;;;5084500;28;20020;-75
2022/10/06 05:09:27;;;;;;;105.65;82.47;;;;;;;;;;5084366;28;20028;-75
2022/10/06 05:11:52;;;;;;;69.80;54.65;;;;;;;;;;5083930;28;20473;-76
2022/10/06 05:14:18;;;;;;;47.53;38.08;;;;;;;;;;5083013;28;20024;-78
2022/10/06 05:16:43;;;;;;;42.03;35.97;;;;;;;;;;5075593;28;20024;-78
2022/10/06 05:19:10;;;;;;;64.40;52.92;;;;;;;;;;5071857;28;20443;-81
2022/10/06 05:21:35;;;;;;;46.90;41.30;;;;;;;;;;5084734;28;20040;-74
2022/10/06 05:24:02;;;;;;;60.53;53.88;;;;;;;;;;5082256;28;20399;-73
2022/10/06 05:26:29;;;;;;;59.03;52.10;;;;;;;;;;5074923;28;20395;-74
2022/10/06 05:28:54;;;;;;;86.38;74.72;;;;;;;;;;5070300;28;20023;-78
2022/10/06 05:31:27;;;;;;;143.40;119.75;;;;;;;;;;5071248;28;20032;-76
2022/10/06 05:33:53;;;;;;;46.78;40.42;;;;;;;;;;5072260;28;20323;-75
2022/10/06 05:36:19;;;;;;;40.45;35.22;;;;;;;;;;5072721;28;20024;-74
2022/10/06 05:38:44;;;;;;;41.05;35.92;;;;;;;;;;5070044;28;20103;-74
2022/10/06 05:41:11;;;;;;;46.13;39.15;;;;;;;;;;5076687;28;20419;-75
2022/10/06 05:43:37;;;;;;;46.72;40.55;;;;;;;;;;5071803;28;20039;-75
2022/10/06 05:46:04;;;;;;;45.63;38.70;;;;;;;;;;5069632;28;20347;-74
2022/10/06 05:48:29;;;;;;;44.97;39.00;;;;;;;;;;5068736;28;20038;-79
2022/10/06 05:51:03;;;;;;;50.80;42.03;;;;;;;;;;5069337;28;20354;-73
2022/10/06 05:53:29;;;;;;;46.80;41.67;;;;;;;;;;5068429;28;20028;-74
2022/10/06 05:56:01;;;;;;;43.88;39.08;;;;;;;;;;5068132;28;20114;-73
2022/10/06 05:58:27;;;;;;;28.05;25.13;;;;;;;;;;5066289;28;20024;-75
2022/10/06 06:00:53;;;;;;;21.83;19.63;;;;;;;;;;5068653;28;20032;-77
2022/10/06 06:03:18;;;;;;;20.13;18.05;;;;;;;;;;5073648;28;20027;-74
2022/10/06 06:05:44;;;;;;;19.83;17.83;;;;;;;;;;5080309;28;20024;-72
2022/10/06 06:08:10;;;;;;;22.23;19.88;;;;;;;;;;5073241;28;20073;-72
2022/10/06 06:10:35;;;;;;;86.05;67.22;;;;;;;;;;5073088;28;20393;-72
2022/10/06 06:13:00;;;;;;;53.38;41.22;;;;;;;;;;5080527;28;20035;-72
2022/10/06 06:18:11;;;;;;;84.68;63.47;;;;;;;;;;5080599;28;20046;-73
2022/10/06 06:20:36;;;;;;;37.58;29.45;;;;;;;;;;5080113;28;20020;-73
2022/10/06 06:23:01;;;;;;;24.42;21.58;;;;;;;;;;5086595;28;20094;-74
2022/10/06 06:25:27;;;;;;;33.97;23.88;;;;;;;;;;5084997;28;20034;-75
2022/10/06 06:27:54;;;;;;;53.15;39.03;;;;;;;;;;5085893;28;20024;-75
2022/10/06 06:30:20;;;;;;;44.45;35.22;;;;;;;;;;5088790;28;20090;-75
2022/10/06 06:32:45;;;;;;;34.13;27.35;;;;;;;;;;5090707;28;20075;-75
2022/10/06 06:35:10;;;;;;;49.15;43.92;;;;;;;;;;5090988;28;20038;-75
2022/10/06 06:37:36;;;;;;;26.13;21.52;;;;;;;;;;5090927;28;20024;-76
2022/10/06 06:40:01;;;;;;;18.80;15.45;;;;;;;;;;5089085;28;20097;-75
2022/10/06 06:42:27;;;;;;;41.22;33.90;;;;;;;;;;5091105;28;20517;-76
2022/10/06 06:44:53;;;;;;;37.13;29.67;;;;;;;;;;5090856;28;20024;-75
2022/10/06 06:47:20;;;;;;;39.13;29.50;;;;;;;;;;5089688;28;20363;-76
2022/10/06 06:49:46;;;;;;;19.90;17.80;;;;;;;;;;5091399;28;20423;-75
2022/10/06 06:52:12;;;;;;;19.98;16.52;;;;;;;;;;5089534;28;20028;-74
2022/10/06 06:54:39;;;;;;;20.88;18.42;;;;;;;;;;5090626;28;20115;-77
2022/10/06 06:57:05;;;;;;;32.63;22.90;;;;;;;;;;5091348;28;20081;-77
2022/10/06 06:59:32;;;;;;;18.88;12.75;;;;;;;;;;5089045;28;20108;-76
2022/10/06 07:01:59;;;;;;;14.57;8.88;;;;;;;;;;5087980;28;20361;-76
2022/10/06 07:04:25;;;;;;;9.57;7.63;;;;;;;;;;5082037;28;20024;-76
2022/10/06 07:06:56;;;;;;;13.02;9.52;;;;;;;;;;5080918;28;20024;-77
2022/10/06 07:09:22;;;;;;;23.15;14.60;;;;;;;;;;5081616;28;20432;-75
2022/10/06 07:11:49;;;;;;;40.03;21.77;;;;;;;;;;5081592;28;20023;-76
2022/10/06 07:14:14;;;;;;;64.50;32.75;;;;;;;;;;5082049;28;20043;-78
2022/10/06 07:25:07;;;;;;;22.77;15.43;;;;;;;;;;5080284;28;20507;-78
2022/10/06 07:27:34;;;;;;;11.77;10.18;;;;;;;;;;5073985;28;20031;-78
2022/10/06 07:29:59;;;;;;;17.27;11.55;;;;;;;;;;5086017;28;20367;-78
2022/10/06 07:32:25;;;;;;;18.75;10.73;;;;;;;;;;5080461;28;20135;-78
2022/10/06 07:34:50;;;;;;;14.00;11.38;;;;;;;;;;5082418;28;20099;-76
2022/10/06 07:37:17;;;;;;;30.55;22.52;;;;;;;;;;5081907;28;20106;-78
2022/10/06 07:39:43;;;;;;;16.95;11.27;;;;;;;;;;5082466;28;20405;-76
2022/10/06 07:42:11;;;;;;;8.13;7.25;;;;;;;;;;5080221;28;20114;-76
2022/10/06 07:44:37;;;;;;;30.33;18.33;;;;;;;;;;5081773;28;20032;-77
2022/10/06 07:47:04;;;;;;;81.53;47.15;;;;;;;;;;5082147;28;20105;-77
2022/10/06 07:49:29;;;;;;;104.50;52.50;;;;;;;;;;5081445;28;20024;-75
2022/10/06 07:51:55;;;;;;;62.25;33.38;;;;;;;;;;5081320;28;20024;-76
2022/10/06 07:54:21;;;;;;;230.65;142.50;;;;;;;;;;5081609;28;20111;-77
2022/10/06 07:56:46;;;;;;;62.17;38.65;;;;;;;;;;5081812;28;20028;-76
2022/10/06 07:59:12;;;;;;;57.70;43.33;;;;;;;;;;5081660;28;20032;-76
2022/10/06 08:01:37;;;;;;;31.00;21.63;;;;;;;;;;5081221;28;20032;-76
2022/10/06 08:04:05;;;;;;;15.77;11.88;;;;;;;;;;5071730;28;20055;-76
2022/10/06 08:06:33;;;;;;;31.65;22.75;;;;;;;;;;5078612;28;20043;-77
2022/10/06 08:08:59;;;;;;;23.42;18.63;;;;;;;;;;5080796;28;20093;-75
2022/10/06 08:11:24;;;;;;;13.95;10.73;;;;;;;;;;5082160;28;20427;-75
2022/10/06 08:13:50;;;;;;;11.60;8.63;;;;;;;;;;5080924;28;20021;-75
2022/10/06 08:16:20;;;;;;;19.63;14.65;;;;;;;;;;5081287;28;20055;-76
2022/10/06 08:18:45;;;;;;;;;;;;;;;;;;5081201;28;20016;-76
2022/10/06 08:21:15;;;;;;;4.03;3.07;;;;;;;;;;5081272;28;19937;-77
2022/10/06 08:23:41;;;;;;;5.93;4.78;;;;;;;;;;5082041;28;20410;-75
2022/10/06 08:26:07;;;;;;;19.65;15.57;;;;;;;;;;5080067;28;20020;-75
2022/10/06 08:28:35;;;;;;;12.45;9.65;;;;;;;;;;5067138;28;20107;-77
2022/10/06 08:31:04;;;;;;;3.17;2.88;;;;;;;;;;5081039;28;20035;-76
2022/10/06 08:33:30;;;;;;;11.57;7.53;;;;;;;;;;5070096;28;20763;-75
2022/10/06 08:36:00;;;;;;;31.38;20.35;;;;;;;;;;5080953;28;20089;-75
2022/10/06 08:38:25;;;;;;;45.28;31.27;;;;;;;;;;5081586;28;20055;-74
2022/10/06 08:40:51;;;;;;;37.65;24.58;;;;;;;;;;5083566;28;20075;-74
2022/10/06 08:43:18;;;;;;;5.50;4.22;;;;;;;;;;5085284;28;20024;-74
2022/10/06 08:45:44;;;;;;;5.07;2.90;;;;;;;;;;5076852;28;20094;-75
2022/10/06 08:48:17;;;;;;;3.88;2.92;;;;;;;;;;5081810;28;20024;-78
2022/10/06 08:50:48;;;;;;;5.60;3.77;;;;;;;;;;5085024;28;20024;-76
2022/10/06 08:53:27;;;;;;;2.30;1.98;;;;;;;;;;5084309;28;20412;-75
2022/10/06 08:55:57;;;;;;;5.93;3.08;;;;;;;;;;5084261;28;20485;-74
2022/10/06 08:58:28;;;;;;;2.65;1.90;;;;;;;;;;5085164;28;20028;-75
2022/10/06 09:00:55;;;;;;;2.83;2.30;;;;;;;;;;5083301;28;20020;-74
2022/10/06 09:03:25;;;;;;;9.75;7.88;;;;;;;;;;5084777;28;20024;-77
2022/10/06 09:05:52;;;;;;;5.05;4.50;;;;;;;;;;5082808;28;20016;-75
2022/10/06 09:08:26;;;;;;;5.75;3.63;;;;;;;;;;5075065;28;20035;-75
2022/10/06 09:10:58;;;;;;;16.15;7.72;;;;;;;;;;5083341;28;20038;-76
2022/10/06 09:13:27;;;;;;;2.85;1.90;;;;;;;;;;5084701;28;20045;-77
2022/10/06 09:15:53;;;;;;;;;;;;;;;;;;5085462;28;20055;-75
2022/10/06 09:18:24;;;;;;;4.57;2.53;;;;;;;;;;5084145;28;19915;-77
2022/10/06 09:21:01;;;;;;;4.13;2.20;;;;;;;;;;5082734;28;20039;-77
2022/10/06 09:23:49;;;;;;;14.02;9.48;;;;;;;;;;5073256;28;20329;-76
2022/10/06 09:26:14;;;;;;;3.03;1.73;;;;;;;;;;5084293;28;20028;-75
2022/10/06 09:28:40;;;;;;;3.22;1.98;;;;;;;;;;5083883;28;20048;-75
2022/10/06 09:31:17;;;;;;;27.65;23.20;;;;;;;;;;5084404;28;20028;-76
2022/10/06 09:33:43;;;;;;;7.88;5.03;;;;;;;;;;5084682;28;20024;-74
2022/10/06 09:36:09;;;;;;;2.17;1.88;;;;;;;;;;5083463;28;20047;-75
2022/10/06 09:39:05;;;;;;;1.83;1.52;;;;;;;;;;5084183;28;20443;-76
2022/10/06 09:41:38;;;;;;;1.50;1.40;;;;;;;;;;5012276;28;20476;-75
2022/10/06 09:44:05;;;;;;;1.60;1.50;;;;;;;;;;5003950;28;20060;-77
2022/10/06 09:46:38;;;;;;;3.28;2.53;;;;;;;;;;5007943;28;20405;-74
2022/10/06 09:49:22;;;;;;;11.02;8.73;;;;;;;;;;5009261;28;20038;-75
2022/10/06 09:51:53;;;;;;;13.57;11.13;;;;;;;;;;4998064;28;20041;-77
2022/10/06 09:54:19;;;;;;;12.13;8.55;;;;;;;;;;5010576;28;20037;-77
2022/10/06 09:56:45;;;;;;;3.05;2.58;;;;;;;;;;5001302;28;20055;-75
2022/10/06 09:59:21;;;;;;;2.60;2.40;;;;;;;;;;5010694;28;20053;-76
2022/10/06 10:01:54;;;;;;;4.43;3.03;;;;;;;;;;5004623;28;20083;-76
2022/10/06 10:04:29;;;;;;;12.50;11.25;;;;;;;;;;4999459;28;20037;-76
2022/10/06 10:07:14;;;;;;;7.57;6.78;;;;;;;;;;5010850;28;20030;-76
2022/10/06 10:09:43;;;;;;;3.28;2.00;;;;;;;;;;5011730;28;20038;-75
2022/10/06 10:12:23;;;;;;;1.80;1.63;;;;;;;;;;5012219;28;20079;-75
2022/10/06 10:14:49;;;;;;;1.60;1.45;;;;;;;;;;5007587;28;20060;-81
2022/10/06 10:17:19;;;;;;;2.47;1.55;;;;;;;;;;5024510;28;20363;-76
2022/10/06 10:19:51;;;;;;;1.50;1.20;;;;;;;;;;5084106;28;20020;-76
2022/10/06 10:22:22;;;;;;;3.08;2.00;;;;;;;;;;5083279;28;20493;-80
2022/10/06 10:24:59;;;;;;;2.10;1.50;;;;;;;;;;5081729;28;20032;-78
2022/10/06 10:27:30;;;;;;;1.63;1.52;;;;;;;;;;5083897;28;20052;-75
2022/10/06 10:30:13;;;;;;;4.70;3.90;;;;;;;;;;5074577;28;20303;-75
2022/10/06 10:32:42;;;;;;;2.63;1.63;;;;;;;;;;5076921;28;20047;-77
2022/10/06 10:35:15;;;;;;;2.97;2.78;;;;;;;;;;5083965;28;20035;-76
2022/10/06 10:37:59;;;;;;;13.68;12.48;;;;;;;;;;5071643;28;20036;-75
2022/10/06 10:40:28;;;;;;;3.95;2.55;;;;;;;;;;5069940;28;20165;-76
2022/10/06 10:42:59;;;;;;;2.85;1.73;;;;;;;;;;5071734;28;20043;-77
2022/10/06 10:45:28;;;;;;;4.70;2.22;;;;;;;;;;5071933;28;20994;-75
2022/10/06 10:47:54;;;;;;;8.85;7.95;;;;;;;;;;5069221;28;20032;-79
2022/10/06 10:50:19;;;;;;;3.97;3.67;;;;;;;;;;5069915;28;20126;-77
2022/10/06 10:52:48;;;;;;;5.70;2.10;;;;;;;;;;5070629;28;20142;-80
2022/10/06 10:55:15;;;;;;;2.70;2.00;;;;;;;;;;5073133;28;20088;-77
2022/10/06 10:57:42;;;;;;;1.58;1.48;;;;;;;;;;5071448;28;20592;-78
2022/10/06 11:00:21;;;;;;;2.67;1.70;;;;;;;;;;5070954;28;20043;-82
2022/10/06 11:02:47;;;;;;;2.35;1.80;;;;;;;;;;5070809;28;20089;-83
2022/10/06 11:05:32;;;;;;;4.60;2.00;;;;;;;;;;5069943;28;20036;-76
2022/10/06 11:08:07;;;;;;;3.30;1.55;;;;;;;;;;5069568;28;20474;-76
2022/10/06 11:10:37;;;;;;;1.80;1.58;;;;;;;;;;5070088;28;20228;-78
2022/10/06 11:13:09;;;;;;;2.65;1.67;;;;;;;;;;5070222;28;20031;-79
2022/10/06 11:15:42;;;;;;;3.08;1.60;;;;;;;;;;5070588;28;20020;-80
2022/10/06 11:18:21;;;;;;;3.38;2.35;;;;;;;;;;5070633;28;20081;-82
2022/10/06 11:20:52;;;;;;;8.43;6.97;;;;;;;;;;5069353;28;20016;-77
2022/10/06 11:23:32;;;;;;;4.25;3.85;;;;;;;;;;5072848;28;20024;-78
2022/10/06 11:26:03;;;;;;;1.67;1.52;;;;;;;;;;5070331;28;20024;-78
2022/10/06 11:28:55;;;;;;;3.67;3.20;;;;;;;;;;5068715;28;22020;-77
2022/10/06 11:31:34;;;;;;;1.85;1.73;;;;;;;;;;5049572;28;20036;-75
2022/10/06 11:33:59;;;;;;;;;;;;;;;;;;5070561;28;20032;-77
2022/10/06 11:36:25;;;;;;;3.00;2.70;;;;;;;;;;5069986;28;20235;-76
2022/10/06 11:39:00;;;;;;;1.85;1.70;;;;;;;;;;5069446;28;20032;-78
2022/10/06 11:41:31;;;;;;;2.80;2.20;;;;;;;;;;5068300;28;20108;-79
2022/10/06 11:43:59;;;;;;;3.35;2.75;;;;;;;;;;5067673;28;20377;-78
2022/10/06 11:46:30;;;;;;;1.70;1.60;;;;;;;;;;5066527;28;20133;-81
2022/10/06 11:49:14;;;;;;;1.90;1.75;;;;;;;;;;5067108;28;20008;-77
2022/10/06 11:51:39;;;;;;;6.00;1.73;;;;;;;;;;5068065;28;20036;-77
2022/10/06 11:54:25;;;;;;;1.75;1.60;;;;;;;;;;5068371;28;20119;-80
2022/10/06 11:56:50;;;;;;;2.88;1.77;;;;;;;;;;5067741;28;20640;-78
2022/10/06 11:59:26;;;;;;;2.00;1.80;;;;;;;;;;5069321;28;20028;-76
2022/10/06 12:01:52;;;;;;;2.00;1.85;;;;;;;;;;5069366;28;20425;-77
2022/10/06 12:04:18;;;;;;;1.83;1.73;;;;;;;;;;5069142;28;20024;-77
2022/10/06 12:06:44;;;;;;;3.83;3.33;;;;;;;;;;5067131;28;20448;-79
2022/10/06 12:09:26;;;;;;;3.30;2.92;;;;;;;;;;5069427;28;20395;-80
2022/10/06 12:11:57;;;;;;;3.25;2.80;;;;;;;;;;5069136;28;20039;-78
2022/10/06 12:14:43;;;;;;;7.82;6.53;;;;;;;;;;5072637;28;20049;-78
2022/10/06 12:17:25;;;;;;;4.80;4.32;;;;;;;;;;5073998;28;20028;-74
2022/10/06 12:20:08;;;;;;;5.82;5.22;;;;;;;;;;5073988;28;20451;-78
2022/10/06 12:22:38;;;;;;;7.25;6.55;;;;;;;;;;5069841;28;20066;-78
2022/10/06 12:25:23;;;;;;;6.10;5.50;;;;;;;;;;5071315;28;20024;-77
2022/10/06 12:28:09;;;;;;;5.40;4.85;;;;;;;;;;5072445;28;20044;-76
2022/10/06 12:30:53;;;;;;;7.93;4.00;;;;;;;;;;5071844;28;20104;-77
2022/10/06 12:33:19;;;;;;;3.40;3.10;;;;;;;;;;5071193;28;20036;-80
2022/10/06 12:35:45;;;;;;;5.03;4.50;;;;;;;;;;5071410;28;20032;-77
2022/10/06 12:38:29;;;;;;;9.15;8.05;;;;;;;;;;5071878;28;20454;-75
2022/10/06 12:40:54;;;;;;;4.13;3.50;;;;;;;;;;5071410;28;20103;-78
2022/10/06 12:43:22;;;;;;;5.82;3.67;;;;;;;;;;5074674;28;20157;-82
2022/10/06 12:45:57;;;;;;;4.77;3.87;;;;;;;;;;5085045;28;20062;-78
2022/10/06 12:48:25;;;;;;;4.45;3.92;;;;;;;;;;5085036;28;20028;-76
2022/10/06 12:50:53;;;;;;;7.80;5.85;;;;;;;;;;5076267;28;20091;-76
2022/10/06 12:53:24;;;;;;;8.43;7.65;;;;;;;;;;5072361;28;20093;-80
2022/10/06 12:56:00;;;;;;;3.67;3.30;;;;;;;;;;5070706;28;20360;-78
2022/10/06 12:58:28;;;;;;;3.30;2.55;;;;;;;;;;5070850;28;20038;-77
2022/10/06 13:00:58;;;;;;;2.05;1.67;;;;;;;;;;5071131;28;20024;-76
2022/10/06 13:03:24;;;;;;;1.85;1.73;;;;;;;;;;5071403;28;20028;-78
2022/10/06 13:05:50;;;;;;;2.00;1.80;;;;;;;;;;5071333;28;20074;-80
2022/10/06 13:08:35;;;;;;;1.80;1.70;;;;;;;;;;5069555;28;20043;-78
2022/10/06 13:11:17;;;;;;;1.92;1.83;;;;;;;;;;5070963;28;20026;-80
2022/10/06 13:13:46;;;;;;;1.92;1.63;;;;;;;;;;5080536;28;20058;-76
2022/10/06 13:16:13;;;;;;;2.75;1.75;;;;;;;;;;5078105;28;20048;-78
2022/10/06 13:18:39;;;;;;;6.35;2.70;;;;;;;;;;5080649;28;20091;-79
2022/10/06 13:21:09;;;;;;;13.57;11.63;;;;;;;;;;5082773;28;20020;-77
2022/10/06 13:23:36;;;;;;;22.58;20.15;;;;;;;;;;5083693;28;20024;-78
2022/10/06 13:26:21;;;;;;;23.83;21.40;;;;;;;;;;5064970;28;20114;-75
2022/10/06 13:28:48;;;;;;;32.83;28.13;;;;;;;;;;5048195;27;20055;-75
2022/10/06 13:31:18;;;;;;;15.93;14.32;;;;;;;;;;5067754;28;20043;-77
2022/10/06 13:33:44;;;;;;;11.57;10.57;;;;;;;;;;5067985;28;20549;-81
2022/10/06 13:36:11;;;;;;;8.25;7.55;;;;;;;;;;5068494;28;20032;-77
2022/10/06 13:38:37;;;;;;;2.60;2.40;;;;;;;;;;5067409;28;20072;-76
2022/10/06 13:41:12;;;;;;;5.63;4.75;;;;;;;;;;5067904;28;20024;-78
2022/10/06 13:43:40;;;;;;;10.80;9.80;;;;;;;;;;5068397;28;20031;-77
2022/10/06 13:46:10;;;;;;;5.17;4.70;;;;;;;;;;5068231;28;20183;-80
2022/10/06 13:48:37;;;;;;;2.60;2.40;;;;;;;;;;5068499;28;20012;-77
2022/10/06 13:51:02;;;;;;;7.40;6.80;;;;;;;;;;5074263;28;20102;-78
2022/10/06 13:53:29;;;;;;;3.28;3.08;;;;;;;;;;5072445;28;20543;-75
2022/10/06 13:55:55;;;;;;;6.05;4.13;;;;;;;;;;5075350;28;20030;-77
2022/10/06 13:58:24;;;;;;;4.18;3.78;;;;;;;;;;5068663;28;20051;-79
2022/10/06 14:00:55;;;;;;;4.87;4.23;;;;;;;;;;5067332;28;20085;-77
2022/10/06 14:03:24;;;;;;;4.50;4.10;;;;;;;;;;5066667;28;20104;-77
2022/10/06 14:05:51;;;;;;;4.68;4.28;;;;;;;;;;5067001;28;20106;-77
2022/10/06 14:08:24;;;;;;;6.75;5.40;;;;;;;;;;5064981;28;20020;-75
2022/10/06 14:10:56;;;;;;;7.13;5.22;;;;;;;;;;5067600;28;20047;-78
2022/10/06 14:13:21;;;;;;;6.18;4.43;;;;;;;;;;5067631;28;20054;-77
2022/10/06 14:15:48;;;;;;;4.43;4.05;;;;;;;;;;5067415;28;20027;-77
2022/10/06 14:18:18;;;;;;;7.70;7.00;;;;;;;;;;5067725;28;20343;-77
2022/10/06 14:20:45;;;;;;;5.15;4.75;;;;;;;;;;5066855;28;20145;-77
2022/10/06 14:23:29;;;;;;;11.00;9.93;;;;;;;;;;5067811;28;20028;-75
2022/10/06 14:25:55;;;;;;;3.83;3.53;;;;;;;;;;5066146;28;20024;-76
2022/10/06 14:28:20;;;;;;;1.83;1.73;;;;;;;;;;5075605;28;20124;-79
2022/10/06 14:30:46;;;;;;;1.20;1.10;;;;;;;;;;5080776;28;20059;-72
2022/10/06 14:33:11;;;;;;;1.33;1.23;;;;;;;;;;5082389;28;20040;-72
2022/10/06 14:35:36;;;;;;;1.60;1.00;;;;;;;;;;5078415;28;20028;-74
2022/10/06 14:38:02;;;;;;;2.40;1.02;;;;;;;;;;5072818;28;20389;-72
2022/10/06 14:40:27;;;;;;;1.38;1.27;;;;;;;;;;5081407;28;20120;-72
2022/10/06 14:42:52;;;;;;;1.38;1.13;;;;;;;;;;5083011;28;20035;-74
2022/10/06 14:45:18;;;;;;;1.90;1.40;;;;;;;;;;5082153;28;20120;-76
2022/10/06 14:47:45;;;;;;;2.25;1.15;;;;;;;;;;5064267;28;20077;-76
2022/10/06 14:50:12;;;;;;;1.60;1.45;;;;;;;;;;5077526;28;20028;-78